createdAt,value
2018-06-20T00:01:27.596Z,28.37
2018-06-20T00:03:56.149Z,20.23
2018-06-20T00:06:24.785Z,21.70
2018-06-20T00:08:53.979Z,26.50
2018-06-20T00:11:24.494Z,25.17
2018-06-20T00:13:54.106Z,26.67
2018-06-20T00:16:22.730Z,22.40
2018-06-20T00:18:51.317Z,26.63
2018-06-20T00:21:19.957Z,26.07
2018-06-20T00:23:48.524Z,24.80
2018-06-20T00:26:17.227Z,31.23
2018-06-20T00:28:45.816Z,33.83
2018-06-20T00:31:14.422Z,29.30
2018-06-20T00:33:43.070Z,29.50
2018-06-20T00:36:11.851Z,34.00
2018-06-20T00:38:40.511Z,41.57
2018-06-20T00:41:09.297Z,31.40
2018-06-20T00:43:37.801Z,28.03
2018-06-20T00:46:06.324Z,35.63
2018-06-20T00:48:34.827Z,35.60
2018-06-20T00:51:03.365Z,34.50
2018-06-20T00:53:31.855Z,38.80
2018-06-20T00:56:11.549Z,33.50
2018-06-20T00:58:40.058Z,36.17
2018-06-20T01:01:08.560Z,33.80
2018-06-20T01:03:37.062Z,33.13
2018-06-20T01:06:05.719Z,36.00
2018-06-20T01:08:34.197Z,36.37
2018-06-20T01:11:02.694Z,33.13
2018-06-20T01:13:31.204Z,35.27
2018-06-20T01:15:59.709Z,37.47
2018-06-20T01:18:28.259Z,30.37
2018-06-20T01:20:56.772Z,39.00
2018-06-20T01:23:25.262Z,37.40
2018-06-20T01:25:53.757Z,35.10
2018-06-20T01:28:22.669Z,36.77
2018-06-20T01:30:52.430Z,35.43
2018-06-20T01:33:21.724Z,39.30
2018-06-20T01:35:50.421Z,37.97
2018-06-20T01:38:18.905Z,35.50
2018-06-20T01:40:47.386Z,29.27
2018-06-20T01:43:15.990Z,33.37
2018-06-20T01:45:44.461Z,30.87
2018-06-20T01:48:12.929Z,32.97
2018-06-20T01:50:41.426Z,33.63
2018-06-20T01:53:09.923Z,34.03
2018-06-20T01:55:38.477Z,36.33
2018-06-20T01:58:07.086Z,32.80
2018-06-20T02:00:35.711Z,35.40
2018-06-20T02:03:04.209Z,32.97
2018-06-20T02:05:32.698Z,39.97
2018-06-20T02:08:01.219Z,31.03
2018-06-20T02:10:29.726Z,31.67
2018-06-20T02:12:58.228Z,33.77
2018-06-20T02:15:26.750Z,32.33
2018-06-20T02:17:55.305Z,28.07
2018-06-20T02:20:23.865Z,29.80
2018-06-20T02:22:52.342Z,33.40
2018-06-20T02:25:20.862Z,37.53
2018-06-20T02:27:49.331Z,43.10
2018-06-20T02:30:17.890Z,40.77
2018-06-20T02:32:46.354Z,41.03
2018-06-20T02:35:14.850Z,51.13
2018-06-20T02:37:43.445Z,45.53
2018-06-20T02:40:11.924Z,37.47
2018-06-20T02:42:40.474Z,45.40
2018-06-20T02:45:08.948Z,51.73
2018-06-20T02:47:44.327Z,42.40
2018-06-20T02:50:13.869Z,44.73
2018-06-20T02:52:42.403Z,46.97
2018-06-20T02:55:10.954Z,45.10
2018-06-20T02:57:39.432Z,46.50
2018-06-20T03:00:08.189Z,39.03
2018-06-20T03:02:36.686Z,36.87
2018-06-20T03:05:05.464Z,42.00
2018-06-20T03:07:33.984Z,40.70
2018-06-20T03:10:02.505Z,51.37
2018-06-20T03:12:31.009Z,41.70
2018-06-20T03:15:02.433Z,55.20
2018-06-20T03:17:30.988Z,56.30
2018-06-20T03:19:59.494Z,57.53
2018-06-20T03:22:28.009Z,52.90
2018-06-20T03:24:56.554Z,60.90
2018-06-20T03:27:25.267Z,59.67
2018-06-20T03:29:53.815Z,61.73
2018-06-20T03:32:22.293Z,73.67
2018-06-20T03:34:50.909Z,60.63
2018-06-20T03:37:19.537Z,64.20
2018-06-20T03:39:48.030Z,64.20
2018-06-20T03:42:16.546Z,66.90
2018-06-20T03:44:45.206Z,61.80
2018-06-20T03:47:13.738Z,67.23
2018-06-20T03:49:42.215Z,61.43
2018-06-20T03:52:10.722Z,67.97
2018-06-20T03:54:39.209Z,65.63
2018-06-20T03:57:07.708Z,56.53
2018-06-20T03:59:36.219Z,66.07
2018-06-20T04:02:04.941Z,61.00
2018-06-20T04:04:33.446Z,58.27
2018-06-20T04:07:02.012Z,60.90
2018-06-20T04:09:30.529Z,63.73
2018-06-20T04:11:59.020Z,58.80
2018-06-20T04:14:27.545Z,50.90
2018-06-20T04:16:56.135Z,61.10
2018-06-20T04:19:24.662Z,56.67
2018-06-20T04:21:53.313Z,59.87
2018-06-20T04:24:21.785Z,55.30
2018-06-20T04:26:50.290Z,61.90
2018-06-20T04:29:18.941Z,60.07
2018-06-20T04:31:47.441Z,55.10
2018-06-20T04:34:15.926Z,55.27
2018-06-20T04:36:44.614Z,52.90
2018-06-20T04:39:13.127Z,50.93
2018-06-20T04:41:42.648Z,52.53
2018-06-20T04:44:11.261Z,55.87
2018-06-20T04:46:39.777Z,56.03
2018-06-20T04:49:08.417Z,54.70
2018-06-20T04:51:36.930Z,58.13
2018-06-20T04:54:06.170Z,50.80
2018-06-20T04:56:35.105Z,48.70
2018-06-20T04:59:03.614Z,52.43
2018-06-20T05:01:32.182Z,50.83
2018-06-20T05:04:02.925Z,46.60
2018-06-20T05:06:31.430Z,47.93
2018-06-20T05:09:02.142Z,38.07
2018-06-20T05:11:31.026Z,38.00
2018-06-20T05:13:59.677Z,41.60
2018-06-20T05:16:28.161Z,46.83
2018-06-20T05:19:00.307Z,42.37
2018-06-20T05:21:28.773Z,37.17
2018-06-20T05:23:57.709Z,44.97
2018-06-20T05:26:26.243Z,52.70
2018-06-20T05:28:54.738Z,42.10
2018-06-20T05:31:23.294Z,41.97
2018-06-20T05:33:51.781Z,42.60
2018-06-20T05:36:20.315Z,40.47
2018-06-20T05:38:50.294Z,44.27
2018-06-20T05:41:18.870Z,38.03
2018-06-20T05:43:47.392Z,35.60
2018-06-20T05:46:15.889Z,38.40
2018-06-20T05:48:44.523Z,34.10
2018-06-20T05:51:13.011Z,34.00
2018-06-20T05:53:41.536Z,36.43
2018-06-20T05:56:10.108Z,28.73
2018-06-20T05:58:39.875Z,30.57
2018-06-20T06:01:08.366Z,29.93
2018-06-20T06:03:38.530Z,36.73
2018-06-20T06:06:14.020Z,29.90
2018-06-20T06:08:42.861Z,31.90
2018-06-20T06:11:11.426Z,34.67
2018-06-20T06:13:40.156Z,31.17
2018-06-20T06:16:09.094Z,30.80
2018-06-20T06:18:37.858Z,24.57
2018-06-20T06:21:06.974Z,24.20
2018-06-20T06:23:35.558Z,24.13
2018-06-20T06:26:04.114Z,21.70
2018-06-20T06:28:32.595Z,28.70
2018-06-20T06:31:02.580Z,23.90
2018-06-20T06:33:31.148Z,22.87
2018-06-20T06:35:59.686Z,27.53
2018-06-20T06:38:28.152Z,23.60
2018-06-20T06:40:56.901Z,26.83
2018-06-20T06:43:25.934Z,23.67
2018-06-20T06:45:54.429Z,32.17
2018-06-20T06:48:22.933Z,25.43
2018-06-20T06:50:51.518Z,27.73
2018-06-20T06:53:20.419Z,23.50
2018-06-20T06:55:48.918Z,23.03
2018-06-20T06:58:17.753Z,23.70
2018-06-20T07:00:46.311Z,23.70
2018-06-20T07:03:14.813Z,24.33
2018-06-20T07:05:43.339Z,26.90
2018-06-20T07:08:11.913Z,24.33
2018-06-20T07:10:40.413Z,24.07
2018-06-20T07:13:08.934Z,25.90
2018-06-20T07:15:37.557Z,24.07
2018-06-20T07:18:06.041Z,23.40
2018-06-20T07:20:34.559Z,23.30
2018-06-20T07:23:03.270Z,23.60
2018-06-20T07:25:31.832Z,25.77
2018-06-20T07:28:00.454Z,21.70
2018-06-20T07:30:29.430Z,22.97
2018-06-20T07:32:57.939Z,21.73
2018-06-20T07:35:26.541Z,28.80
2018-06-20T07:37:55.049Z,24.10
2018-06-20T07:40:23.590Z,20.73
2018-06-20T07:42:52.098Z,25.80
2018-06-20T07:45:20.611Z,24.43
2018-06-20T07:47:49.173Z,24.90
2018-06-20T07:50:17.652Z,25.90
2018-06-20T07:52:46.186Z,24.10
2018-06-20T07:55:14.727Z,24.50
2018-06-20T07:57:43.722Z,24.57
2018-06-20T08:00:17.573Z,24.30
2018-06-20T08:03:02.682Z,24.53
2018-06-20T08:05:36.348Z,25.97
2018-06-20T08:08:11.425Z,25.50
2018-06-20T08:10:45.097Z,25.23
2018-06-20T08:13:18.838Z,20.83
2018-06-20T08:15:52.582Z,20.33
2018-06-20T08:18:26.445Z,23.47
2018-06-20T08:20:54.969Z,20.97
2018-06-20T08:23:24.143Z,20.20
2018-06-20T08:25:52.695Z,21.33
2018-06-20T08:28:24.578Z,21.30
2018-06-20T08:30:53.203Z,21.23
2018-06-20T08:33:21.926Z,22.10
2018-06-20T08:35:50.434Z,20.93
2018-06-20T08:38:19.010Z,18.40
2018-06-20T08:40:47.826Z,17.90
2018-06-20T08:43:16.888Z,19.40
2018-06-20T08:45:45.417Z,21.33
2018-06-20T08:48:13.905Z,17.67
2018-06-20T08:50:42.404Z,16.60
2018-06-20T08:53:11.027Z,14.57
2018-06-20T08:55:40.065Z,14.67
2018-06-20T08:58:09.118Z,13.30
2018-06-20T09:00:42.972Z,11.87
2018-06-20T09:03:11.478Z,12.27
2018-06-20T09:05:45.317Z,12.93
2018-06-20T09:08:21.067Z,13.40
2018-06-20T09:10:54.782Z,14.60
2018-06-20T09:13:28.598Z,14.13
2018-06-20T09:16:06.390Z,12.87
2018-06-20T09:18:40.606Z,14.63
2018-06-20T09:21:09.224Z,13.13
2018-06-20T09:23:37.707Z,18.87
2018-06-20T09:26:06.285Z,14.77
2018-06-20T09:28:34.795Z,12.90
2018-06-20T09:31:03.777Z,12.60
2018-06-20T09:33:32.274Z,13.40
2018-06-20T09:36:00.757Z,12.83
2018-06-20T09:38:33.145Z,12.37
2018-06-20T09:41:01.638Z,12.27
2018-06-20T09:43:30.157Z,13.90
2018-06-20T09:45:58.691Z,10.87
2018-06-20T09:48:28.288Z,12.67
2018-06-20T09:50:58.337Z,12.03
2018-06-20T09:53:28.050Z,12.47
2018-06-20T09:55:56.549Z,13.20
2018-06-20T09:58:25.106Z,13.70
2018-06-20T10:00:58.865Z,13.83
2018-06-20T10:03:32.962Z,16.10
2018-06-20T10:06:06.724Z,15.63
2018-06-20T10:08:41.043Z,12.27
2018-06-20T10:11:14.935Z,14.20
2018-06-20T10:13:46.854Z,12.40
2018-06-20T10:16:16.075Z,13.63
2018-06-20T10:18:44.571Z,13.93
2018-06-20T10:21:13.674Z,12.83
2018-06-20T10:23:42.146Z,13.60
2018-06-20T10:26:11.497Z,13.30
2018-06-20T10:28:40.039Z,12.20
2018-06-20T10:31:09.504Z,16.30
2018-06-20T10:33:38.137Z,13.60
2018-06-20T10:36:08.039Z,14.90
2018-06-20T10:38:36.970Z,14.90
2018-06-20T10:41:05.503Z,14.10
2018-06-20T10:43:34.006Z,14.80
2018-06-20T10:46:07.892Z,15.17
2018-06-20T10:48:36.750Z,14.80
2018-06-20T10:51:05.288Z,15.60
2018-06-20T10:53:33.817Z,16.00
2018-06-20T10:56:02.299Z,15.63
2018-06-20T10:58:36.044Z,13.07
2018-06-20T11:01:10.906Z,15.10
2018-06-20T11:03:44.759Z,14.40
2018-06-20T11:06:18.389Z,16.03
2018-06-20T11:08:52.347Z,15.70
2018-06-20T11:11:26.006Z,16.43
2018-06-20T11:13:54.592Z,16.27
2018-06-20T11:16:23.158Z,21.03
2018-06-20T11:18:54.042Z,19.67
2018-06-20T11:21:22.550Z,16.10
2018-06-20T11:23:52.248Z,17.83
2018-06-20T11:26:20.756Z,21.07
2018-06-20T11:28:49.274Z,22.80
2018-06-20T11:31:17.829Z,21.43
2018-06-20T11:33:46.382Z,20.17
2018-06-20T11:36:15.054Z,19.27
2018-06-20T11:38:43.560Z,22.30
2018-06-20T11:41:12.082Z,23.17
2018-06-20T11:43:40.975Z,20.90
2018-06-20T11:46:14.813Z,22.50
2018-06-20T11:48:43.305Z,24.43
2018-06-20T11:51:11.807Z,21.60
2018-06-20T11:53:40.346Z,22.77
2018-06-20T11:56:09.329Z,25.00
2018-06-20T11:58:42.943Z,23.73
2018-06-20T12:01:16.768Z,22.20
2018-06-20T12:03:50.626Z,27.53
2018-06-20T12:06:24.245Z,23.90
2018-06-20T12:09:01.814Z,22.43
2018-06-20T12:11:35.539Z,21.97
2018-06-20T12:14:09.146Z,18.37
2018-06-20T12:16:38.568Z,15.60
2018-06-20T12:19:12.588Z,17.90
2018-06-20T12:21:46.417Z,16.00
2018-06-20T12:24:19.998Z,16.97
2018-06-20T12:26:53.602Z,16.43
2018-06-20T12:29:27.494Z,15.57
2018-06-20T12:32:02.850Z,14.67
2018-06-20T12:34:36.547Z,14.23
2018-06-20T12:37:11.287Z,16.63
2018-06-20T12:39:38.890Z,13.97
2018-06-20T12:42:12.631Z,16.00
2018-06-20T12:44:46.531Z,11.50
2018-06-20T12:47:23.113Z,11.60
2018-06-20T12:49:59.202Z,14.67
2018-06-20T12:52:27.749Z,14.20
2018-06-20T12:54:56.243Z,11.63
2018-06-20T12:57:24.805Z,13.87
2018-06-20T12:59:54.248Z,17.30
2018-06-20T13:02:22.875Z,19.50
2018-06-20T13:04:51.830Z,12.97
2018-06-20T13:07:20.395Z,19.90
2018-06-20T13:09:48.877Z,14.67
2018-06-20T13:12:17.352Z,13.80
2018-06-20T13:14:45.878Z,14.63
2018-06-20T13:17:14.445Z,16.57
2018-06-20T13:19:43.028Z,12.43
2018-06-20T13:22:12.434Z,12.30
2018-06-20T13:24:40.947Z,12.17
2018-06-20T13:27:10.109Z,14.63
2018-06-20T13:29:38.605Z,14.97
2018-06-20T13:32:12.378Z,11.27
2018-06-20T13:34:46.289Z,13.53
2018-06-20T13:37:20.148Z,18.83
2018-06-20T13:39:54.555Z,12.50
2018-06-20T13:42:28.371Z,19.23
2018-06-20T13:45:01.072Z,20.43
2018-06-20T13:47:34.631Z,20.40
2018-06-20T13:50:03.190Z,17.63
2018-06-20T13:52:31.686Z,21.50
2018-06-20T13:55:00.205Z,18.83
2018-06-20T13:57:28.881Z,19.13
2018-06-20T13:59:57.382Z,17.47
2018-06-20T14:02:25.878Z,17.33
2018-06-20T14:04:54.406Z,21.93
2018-06-20T14:07:24.890Z,17.90
2018-06-20T14:09:53.394Z,16.27
2018-06-20T14:12:23.391Z,19.20
2018-06-20T14:14:52.600Z,15.40
2018-06-20T14:17:21.186Z,19.43
2018-06-20T14:19:54.855Z,19.50
2018-06-20T14:22:23.374Z,15.20
2018-06-20T14:24:51.887Z,16.00
2018-06-20T14:27:20.536Z,13.40
2018-06-20T14:29:49.490Z,24.13
2018-06-20T14:32:23.193Z,29.23
2018-06-20T14:34:56.896Z,15.03
2018-06-20T14:37:30.987Z,16.10
2018-06-20T14:40:04.705Z,18.23
2018-06-20T14:42:39.467Z,16.67
2018-06-20T14:45:14.208Z,16.30
2018-06-20T14:47:42.702Z,16.37
2018-06-20T14:50:11.218Z,12.83
2018-06-20T14:52:40.400Z,13.97
2018-06-20T14:55:08.925Z,13.97
2018-06-20T14:57:37.430Z,15.07
2018-06-20T15:00:06.719Z,13.70
2018-06-20T15:02:35.208Z,17.27
2018-06-20T15:05:03.866Z,15.20
2018-06-20T15:07:32.363Z,15.30
2018-06-20T15:10:01.255Z,14.53
2018-06-20T15:12:29.769Z,13.23
2018-06-20T15:14:58.371Z,16.50
2018-06-20T15:17:30.548Z,15.97
2018-06-20T15:19:59.146Z,16.80
2018-06-20T15:22:31.917Z,14.20
2018-06-20T15:25:00.390Z,13.40
2018-06-20T15:27:34.209Z,12.33
2018-06-20T15:30:08.216Z,21.27
2018-06-20T15:32:42.113Z,12.23
2018-06-20T15:35:19.469Z,16.97
2018-06-20T15:37:53.218Z,18.40
2018-06-20T15:40:23.767Z,18.03
2018-06-20T15:42:52.365Z,17.60
2018-06-20T15:45:21.068Z,21.43
2018-06-20T15:47:49.603Z,21.30
2018-06-20T15:50:18.117Z,20.93
2018-06-20T15:52:46.738Z,19.50
2018-06-20T15:55:19.174Z,27.77
2018-06-20T15:57:47.713Z,28.47
2018-06-20T16:00:16.263Z,31.00
2018-06-20T16:02:45.394Z,29.23
2018-06-20T16:05:14.082Z,29.80
2018-06-20T16:07:42.628Z,33.00
2018-06-20T16:10:15.313Z,27.57
2018-06-20T16:12:43.860Z,30.67
2018-06-20T16:15:12.417Z,30.07
2018-06-20T16:17:40.950Z,32.30
2018-06-20T16:20:18.070Z,28.23
2018-06-20T16:22:51.983Z,27.70
2018-06-20T16:25:25.849Z,30.07
2018-06-20T16:27:59.457Z,28.90
2018-06-20T16:30:34.619Z,26.63
2018-06-20T16:33:03.231Z,27.90
2018-06-20T16:35:31.729Z,23.90
2018-06-20T16:38:00.623Z,20.53
2018-06-20T16:40:29.394Z,23.20
2018-06-20T16:42:57.974Z,18.30
2018-06-20T16:45:26.496Z,19.67
2018-06-20T16:47:54.993Z,18.57
2018-06-20T16:50:25.430Z,18.43
2018-06-20T16:52:53.975Z,14.33
2018-06-20T16:55:22.582Z,12.30
2018-06-20T16:57:51.113Z,11.50
2018-06-20T17:00:19.602Z,13.47
2018-06-20T17:02:48.204Z,13.77
2018-06-20T17:05:16.767Z,15.97
2018-06-20T17:07:45.266Z,14.40
2018-06-20T17:10:13.796Z,14.47
2018-06-20T17:12:47.618Z,22.40
2018-06-20T17:15:21.591Z,20.03
2018-06-20T17:18:04.521Z,35.87
2018-06-20T17:20:38.445Z,15.30
2018-06-20T17:23:12.126Z,11.97
2018-06-20T17:25:44.088Z,12.33
2018-06-20T17:28:12.736Z,14.63
2018-06-20T17:30:46.317Z,14.60
2018-06-20T17:33:14.932Z,15.70
2018-06-20T17:35:43.482Z,16.00
2018-06-20T17:38:12.023Z,14.67
2018-06-20T17:40:40.570Z,16.73
2018-06-20T17:43:09.502Z,15.20
2018-06-20T17:45:38.013Z,12.67
2018-06-20T17:48:06.497Z,15.77
2018-06-20T17:50:35.006Z,14.40
2018-06-20T17:53:03.549Z,14.33
2018-06-20T17:55:32.071Z,13.07
2018-06-20T17:58:00.555Z,12.80
2018-06-20T18:00:29.090Z,14.80
2018-06-20T18:02:57.692Z,16.07
2018-06-20T18:05:31.401Z,12.17
2018-06-20T18:08:05.170Z,12.70
2018-06-20T18:11:40.938Z,9.73
2018-06-20T18:14:14.747Z,10.40
2018-06-20T18:16:49.539Z,9.73
2018-06-20T18:19:18.224Z,8.10
2018-06-20T18:21:46.772Z,10.53
2018-06-20T18:24:15.287Z,8.25
2018-06-20T18:26:43.773Z,8.55
2018-06-20T18:29:12.245Z,9.80
2018-06-20T18:31:40.782Z,14.73
2018-06-20T18:34:09.261Z,11.07
2018-06-20T18:36:37.726Z,9.97
2018-06-20T18:39:08.111Z,9.40
2018-06-20T18:41:36.729Z,13.30
2018-06-20T18:44:05.409Z,11.77
2018-06-20T18:46:33.913Z,11.30
2018-06-20T18:49:02.443Z,11.00
2018-06-20T18:51:32.685Z,12.13
2018-06-20T18:54:01.209Z,13.13
2018-06-20T18:56:29.819Z,16.30
2018-06-20T18:59:03.532Z,10.13
2018-06-20T19:01:37.325Z,8.97
2018-06-20T19:04:11.165Z,8.07
2018-06-20T19:06:45.093Z,13.53
2018-06-20T19:09:18.430Z,8.83
2018-06-20T19:11:47.401Z,7.70
2018-06-20T19:14:15.860Z,10.33
2018-06-20T19:16:45.042Z,11.83
2018-06-20T19:19:13.620Z,8.40
2018-06-20T19:21:42.106Z,9.83
2018-06-20T19:24:10.794Z,8.57
2018-06-20T19:26:39.341Z,9.80
2018-06-20T19:29:07.821Z,10.47
2018-06-20T19:31:36.384Z,12.33
2018-06-20T19:34:04.930Z,12.07
2018-06-20T19:36:33.544Z,11.83
2018-06-20T19:39:06.248Z,10.73
2018-06-20T19:41:34.775Z,10.23
2018-06-20T19:44:08.455Z,11.20
2018-06-20T19:46:36.942Z,13.73
2018-06-20T19:49:05.465Z,15.17
2018-06-20T19:51:33.977Z,18.50
2018-06-20T19:54:02.490Z,17.67
2018-06-20T19:56:31.112Z,13.97
2018-06-20T19:58:59.852Z,15.70
2018-06-20T20:01:28.382Z,17.37
2018-06-20T20:03:57.009Z,18.67
2018-06-20T20:06:25.493Z,16.80
2018-06-20T20:08:55.825Z,15.60
2018-06-20T20:11:24.350Z,26.70
2018-06-20T20:13:52.828Z,17.23
2018-06-20T20:16:21.431Z,14.23
2018-06-20T20:18:50.585Z,18.30
2018-06-20T20:21:19.071Z,16.63
2018-06-20T20:23:47.549Z,17.23
2018-06-20T20:26:16.050Z,15.90
2018-06-20T20:28:44.562Z,14.37
2018-06-20T20:31:13.037Z,18.83
2018-06-20T20:33:41.541Z,16.43
2018-06-20T20:36:10.102Z,14.23
2018-06-20T20:38:38.629Z,12.20
2018-06-20T20:41:07.119Z,17.30
2018-06-20T20:43:35.938Z,17.13
2018-06-20T20:46:04.477Z,15.27
2018-06-20T20:48:33.061Z,20.73
2018-06-20T20:51:01.604Z,12.03
2018-06-20T20:53:30.090Z,14.10
2018-06-20T20:55:58.654Z,13.17
2018-06-20T20:58:27.230Z,9.83
2018-06-20T21:00:55.849Z,12.20
2018-06-20T21:03:24.342Z,18.20
2018-06-20T21:05:52.826Z,13.40
2018-06-20T21:08:21.494Z,12.83
2018-06-20T21:10:49.965Z,13.83
2018-06-20T21:13:18.454Z,12.23
2018-06-20T21:15:46.982Z,18.70
2018-06-20T21:18:15.478Z,13.93
2018-06-20T21:20:43.962Z,10.70
2018-06-20T21:23:12.527Z,9.20
2018-06-20T21:25:41.014Z,14.50
2018-06-20T21:28:09.761Z,14.27
2018-06-20T21:30:38.591Z,10.30
2018-06-20T21:33:07.160Z,14.03
2018-06-20T21:35:35.663Z,14.50
2018-06-20T21:38:04.242Z,13.07
2018-06-20T21:40:32.713Z,10.27
2018-06-20T21:43:01.184Z,12.73
2018-06-20T21:45:29.781Z,18.73
2018-06-20T21:47:58.420Z,12.67
2018-06-20T21:50:26.898Z,11.83
2018-06-20T21:52:55.401Z,12.37
2018-06-20T21:55:25.448Z,10.17
2018-06-20T21:57:53.994Z,13.17
2018-06-20T22:00:26.323Z,9.90
2018-06-20T22:02:54.945Z,11.13
2018-06-20T22:05:26.158Z,10.83
2018-06-20T22:07:54.641Z,10.00
2018-06-20T22:10:23.162Z,17.03
2018-06-20T22:12:51.772Z,14.17
2018-06-20T22:15:20.344Z,10.93
2018-06-20T22:17:51.178Z,13.90
2018-06-20T22:20:19.718Z,11.93
2018-06-20T22:22:48.179Z,16.53
2018-06-20T22:25:16.742Z,12.33
2018-06-20T22:27:45.350Z,14.80
2018-06-20T22:30:13.824Z,12.00
2018-06-20T22:32:43.485Z,11.40
2018-06-20T22:35:11.986Z,10.10
2018-06-20T22:37:40.536Z,14.90
2018-06-20T22:40:09.008Z,11.67
2018-06-20T22:42:37.594Z,13.33
2018-06-20T22:45:06.441Z,14.53
2018-06-20T22:47:34.933Z,15.60
2018-06-20T22:50:03.565Z,12.40
2018-06-20T22:52:32.218Z,18.60
2018-06-20T22:55:00.700Z,16.93
2018-06-20T22:57:29.218Z,17.87
2018-06-20T23:00:01.539Z,14.63
2018-06-20T23:02:30.123Z,16.43
2018-06-20T23:04:58.613Z,14.33
2018-06-20T23:07:27.215Z,21.40
2018-06-20T23:09:56.779Z,16.23
2018-06-20T23:12:25.309Z,22.67
2018-06-20T23:14:53.917Z,15.07
2018-06-20T23:17:22.387Z,18.93
2018-06-20T23:19:50.887Z,17.00
2018-06-20T23:22:19.510Z,16.47
2018-06-20T23:24:47.978Z,15.53
2018-06-20T23:27:16.436Z,17.37
2018-06-20T23:29:44.970Z,19.67
2018-06-20T23:32:13.467Z,20.23
2018-06-20T23:34:41.987Z,16.07
2018-06-20T23:37:10.595Z,16.50
2018-06-20T23:39:39.109Z,20.67
2018-06-20T23:42:07.683Z,24.07
2018-06-20T23:44:36.161Z,17.77
2018-06-20T23:47:04.689Z,15.60
2018-06-20T23:49:33.217Z,19.63
2018-06-20T23:52:02.009Z,16.90
2018-06-20T23:54:30.541Z,22.77
2018-06-20T23:56:59.034Z,17.73
2018-06-20T23:59:27.528Z,16.23
